sensor_id;sensor_type;location;lat;lon;timestamp;P1;durP1;ratioP1;P2;durP2;ratioP2
33076;SDS011;38790;51.964;5.924;2022-11-20T00:01:11;28.60;;;19.23;;
33076;SDS011;38790;51.964;5.924;2022-11-20T00:03:39;25.98;;;17.95;;
33076;SDS011;38790;51.964;5.924;2022-11-20T00:06:08;33.17;;;17.65;;
33076;SDS011;38790;51.964;5.924;2022-11-20T00:08:36;32.50;;;17.80;;
33076;SDS011;38790;51.964;5.924;2022-11-20T00:11:06;30.08;;;17.83;;
33076;SDS011;38790;51.964;5.924;2022-11-20T00:13:35;26.38;;;17.30;;
33076;SDS011;38790;51.964;5.924;2022-11-20T00:16:02;30.05;;;17.70;;
33076;SDS011;38790;51.964;5.924;2022-11-20T00:18:29;28.23;;;17.58;;
33076;SDS011;38790;51.964;5.924;2022-11-20T00:21:29;28.25;;;18.45;;
33076;SDS011;38790;51.964;5.924;2022-11-20T00:23:50;31.17;;;18.33;;
33076;SDS011;38790;51.964;5.924;2022-11-20T00:26:17;35.72;;;18.75;;
33076;SDS011;38790;51.964;5.924;2022-11-20T00:28:49;30.00;;;18.08;;
33076;SDS011;38790;51.964;5.924;2022-11-20T00:31:16;31.42;;;17.90;;
33076;SDS011;38790;51.964;5.924;2022-11-20T00:33:43;32.67;;;18.73;;
33076;SDS011;38790;51.964;5.924;2022-11-20T00:36:10;30.10;;;16.90;;
33076;SDS011;38790;51.964;5.924;2022-11-20T00:38:38;28.85;;;17.27;;
33076;SDS011;38790;51.964;5.924;2022-11-20T00:41:05;29.83;;;18.58;;
33076;SDS011;38790;51.964;5.924;2022-11-20T00:43:34;29.95;;;18.67;;
33076;SDS011;38790;51.964;5.924;2022-11-20T00:46:01;28.60;;;17.85;;
33076;SDS011;38790;51.964;5.924;2022-11-20T00:48:30;29.23;;;17.75;;
33076;SDS011;38790;51.964;5.924;2022-11-20T00:50:56;28.75;;;18.10;;
33076;SDS011;38790;51.964;5.924;2022-11-20T00:53:23;35.35;;;19.67;;
33076;SDS011;38790;51.964;5.924;2022-11-20T00:55:53;31.17;;;18.88;;
33076;SDS011;38790;51.964;5.924;2022-11-20T00:58:30;31.58;;;19.30;;
33076;SDS011;38790;51.964;5.924;2022-11-20T01:01:05;31.80;;;19.42;;
33076;SDS011;38790;51.964;5.924;2022-11-20T01:03:37;31.58;;;18.27;;
33076;SDS011;38790;51.964;5.924;2022-11-20T01:06:10;27.90;;;19.08;;
33076;SDS011;38790;51.964;5.924;2022-11-20T01:08:38;27.55;;;16.90;;
33076;SDS011;38790;51.964;5.924;2022-11-20T01:11:06;32.70;;;19.33;;
33076;SDS011;38790;51.964;5.924;2022-11-20T01:13:34;31.02;;;18.60;;
33076;SDS011;38790;51.964;5.924;2022-11-20T01:16:39;40.60;;;19.92;;
33076;SDS011;38790;51.964;5.924;2022-11-20T01:19:02;35.10;;;18.23;;
33076;SDS011;38790;51.964;5.924;2022-11-20T01:21:31;28.77;;;18.35;;
33076;SDS011;38790;51.964;5.924;2022-11-20T01:24:04;32.40;;;18.90;;
33076;SDS011;38790;51.964;5.924;2022-11-20T01:26:32;29.13;;;18.45;;
33076;SDS011;38790;51.964;5.924;2022-11-20T01:29:00;31.30;;;19.63;;
33076;SDS011;38790;51.964;5.924;2022-11-20T01:31:27;32.17;;;20.35;;
33076;SDS011;38790;51.964;5.924;2022-11-20T01:33:56;28.20;;;18.98;;
33076;SDS011;38790;51.964;5.924;2022-11-20T01:36:24;34.33;;;18.80;;
33076;SDS011;38790;51.964;5.924;2022-11-20T01:38:53;29.08;;;18.80;;
33076;SDS011;38790;51.964;5.924;2022-11-20T01:41:22;30.10;;;17.98;;
33076;SDS011;38790;51.964;5.924;2022-11-20T01:44:08;29.17;;;18.23;;
33076;SDS011;38790;51.964;5.924;2022-11-20T01:46:38;31.90;;;18.08;;
33076;SDS011;38790;51.964;5.924;2022-11-20T01:49:14;32.90;;;19.05;;
33076;SDS011;38790;51.964;5.924;2022-11-20T01:51:45;31.50;;;18.75;;
33076;SDS011;38790;51.964;5.924;2022-11-20T01:54:17;28.02;;;17.70;;
33076;SDS011;38790;51.964;5.924;2022-11-20T01:56:48;27.95;;;18.58;;
33076;SDS011;38790;51.964;5.924;2022-11-20T01:59:17;28.05;;;17.55;;
33076;SDS011;38790;51.964;5.924;2022-11-20T02:01:45;29.85;;;18.55;;
33076;SDS011;38790;51.964;5.924;2022-11-20T02:04:11;29.70;;;17.38;;
33076;SDS011;38790;51.964;5.924;2022-11-20T02:06:47;27.77;;;17.45;;
33076;SDS011;38790;51.964;5.924;2022-11-20T02:09:16;27.25;;;16.58;;
33076;SDS011;38790;51.964;5.924;2022-11-20T02:11:42;26.35;;;16.77;;
33076;SDS011;38790;51.964;5.924;2022-11-20T02:14:08;34.83;;;18.15;;
33076;SDS011;38790;51.964;5.924;2022-11-20T02:16:40;30.88;;;17.70;;
33076;SDS011;38790;51.964;5.924;2022-11-20T02:19:22;29.02;;;17.42;;
33076;SDS011;38790;51.964;5.924;2022-11-20T02:24:23;32.03;;;19.20;;
33076;SDS011;38790;51.964;5.924;2022-11-20T02:26:50;28.73;;;17.55;;
33076;SDS011;38790;51.964;5.924;2022-11-20T02:29:25;27.77;;;18.05;;
33076;SDS011;38790;51.964;5.924;2022-11-20T02:31:53;33.40;;;18.58;;
33076;SDS011;38790;51.964;5.924;2022-11-20T02:34:22;26.38;;;17.02;;
33076;SDS011;38790;51.964;5.924;2022-11-20T02:36:48;29.25;;;17.42;;
33076;SDS011;38790;51.964;5.924;2022-11-20T02:39:16;29.20;;;18.13;;
33076;SDS011;38790;51.964;5.924;2022-11-20T02:41:42;29.15;;;17.92;;
33076;SDS011;38790;51.964;5.924;2022-11-20T02:44:09;32.65;;;18.00;;
33076;SDS011;38790;51.964;5.924;2022-11-20T02:46:35;34.25;;;19.60;;
33076;SDS011;38790;51.964;5.924;2022-11-20T02:49:02;27.35;;;17.13;;
33076;SDS011;38790;51.964;5.924;2022-11-20T02:51:29;29.35;;;18.50;;
33076;SDS011;38790;51.964;5.924;2022-11-20T02:53:55;28.42;;;18.77;;
33076;SDS011;38790;51.964;5.924;2022-11-20T02:56:21;31.60;;;17.05;;
33076;SDS011;38790;51.964;5.924;2022-11-20T02:58:48;34.72;;;18.85;;
33076;SDS011;38790;51.964;5.924;2022-11-20T03:01:14;29.52;;;18.27;;
33076;SDS011;38790;51.964;5.924;2022-11-20T03:03:40;33.05;;;18.85;;
33076;SDS011;38790;51.964;5.924;2022-11-20T03:06:06;33.08;;;18.23;;
33076;SDS011;38790;51.964;5.924;2022-11-20T03:08:33;28.38;;;18.35;;
33076;SDS011;38790;51.964;5.924;2022-11-20T03:11:03;31.98;;;18.15;;
33076;SDS011;38790;51.964;5.924;2022-11-20T03:13:31;39.67;;;19.45;;
33076;SDS011;38790;51.964;5.924;2022-11-20T03:15:58;27.27;;;17.48;;
33076;SDS011;38790;51.964;5.924;2022-11-20T03:18:29;33.05;;;19.10;;
33076;SDS011;38790;51.964;5.924;2022-11-20T03:20:58;36.13;;;19.13;;
33076;SDS011;38790;51.964;5.924;2022-11-20T03:23:25;29.90;;;18.67;;
33076;SDS011;38790;51.964;5.924;2022-11-20T03:25:51;33.92;;;19.30;;
33076;SDS011;38790;51.964;5.924;2022-11-20T03:28:17;35.00;;;18.98;;
33076;SDS011;38790;51.964;5.924;2022-11-20T03:30:43;28.63;;;17.67;;
33076;SDS011;38790;51.964;5.924;2022-11-20T03:33:09;28.42;;;18.20;;
33076;SDS011;38790;51.964;5.924;2022-11-20T03:35:35;33.85;;;18.83;;
33076;SDS011;38790;51.964;5.924;2022-11-20T03:38:01;32.30;;;19.23;;
33076;SDS011;38790;51.964;5.924;2022-11-20T03:40:28;28.00;;;18.02;;
33076;SDS011;38790;51.964;5.924;2022-11-20T03:42:54;30.00;;;18.13;;
33076;SDS011;38790;51.964;5.924;2022-11-20T03:45:20;31.45;;;18.20;;
33076;SDS011;38790;51.964;5.924;2022-11-20T03:47:46;32.35;;;19.27;;
33076;SDS011;38790;51.964;5.924;2022-11-20T03:50:13;29.38;;;17.77;;
33076;SDS011;38790;51.964;5.924;2022-11-20T03:52:39;28.63;;;18.15;;
33076;SDS011;38790;51.964;5.924;2022-11-20T03:55:06;30.85;;;18.58;;
33076;SDS011;38790;51.964;5.924;2022-11-20T03:57:32;33.95;;;18.85;;
33076;SDS011;38790;51.964;5.924;2022-11-20T03:59:59;27.98;;;17.00;;
33076;SDS011;38790;51.964;5.924;2022-11-20T04:02:25;28.45;;;18.55;;
33076;SDS011;38790;51.964;5.924;2022-11-20T04:04:51;30.00;;;18.45;;
33076;SDS011;38790;51.964;5.924;2022-11-20T04:07:17;31.40;;;18.02;;
33076;SDS011;38790;51.964;5.924;2022-11-20T04:09:43;30.02;;;18.88;;
33076;SDS011;38790;51.964;5.924;2022-11-20T04:12:09;30.50;;;18.17;;
33076;SDS011;38790;51.964;5.924;2022-11-20T04:14:35;32.22;;;17.88;;
33076;SDS011;38790;51.964;5.924;2022-11-20T04:17:02;31.02;;;18.83;;
33076;SDS011;38790;51.964;5.924;2022-11-20T04:19:29;30.45;;;18.35;;
33076;SDS011;38790;51.964;5.924;2022-11-20T04:21:55;26.88;;;17.48;;
33076;SDS011;38790;51.964;5.924;2022-11-20T04:24:21;29.65;;;18.52;;
33076;SDS011;38790;51.964;5.924;2022-11-20T04:26:47;28.65;;;17.35;;
33076;SDS011;38790;51.964;5.924;2022-11-20T04:29:13;33.70;;;19.30;;
33076;SDS011;38790;51.964;5.924;2022-11-20T04:31:39;28.48;;;18.45;;
33076;SDS011;38790;51.964;5.924;2022-11-20T04:34:06;28.58;;;17.60;;
33076;SDS011;38790;51.964;5.924;2022-11-20T04:36:33;29.90;;;18.23;;
33076;SDS011;38790;51.964;5.924;2022-11-20T04:39:01;28.40;;;16.63;;
33076;SDS011;38790;51.964;5.924;2022-11-20T04:41:32;33.42;;;19.05;;
33076;SDS011;38790;51.964;5.924;2022-11-20T04:44:00;31.25;;;19.33;;
33076;SDS011;38790;51.964;5.924;2022-11-20T04:46:29;28.90;;;17.30;;
33076;SDS011;38790;51.964;5.924;2022-11-20T04:49:01;30.42;;;19.23;;
33076;SDS011;38790;51.964;5.924;2022-11-20T04:51:27;31.25;;;19.52;;
33076;SDS011;38790;51.964;5.924;2022-11-20T04:53:53;30.67;;;18.40;;
33076;SDS011;38790;51.964;5.924;2022-11-20T04:56:20;28.98;;;18.15;;
33076;SDS011;38790;51.964;5.924;2022-11-20T04:58:46;29.25;;;18.80;;
33076;SDS011;38790;51.964;5.924;2022-11-20T05:01:13;31.05;;;18.65;;
33076;SDS011;38790;51.964;5.924;2022-11-20T05:03:41;32.17;;;19.27;;
33076;SDS011;38790;51.964;5.924;2022-11-20T05:06:08;38.05;;;19.05;;
33076;SDS011;38790;51.964;5.924;2022-11-20T05:08:35;33.95;;;20.30;;
33076;SDS011;38790;51.964;5.924;2022-11-20T05:11:06;31.35;;;19.15;;
33076;SDS011;38790;51.964;5.924;2022-11-20T05:13:37;29.73;;;18.40;;
33076;SDS011;38790;51.964;5.924;2022-11-20T05:16:11;29.13;;;17.98;;
33076;SDS011;38790;51.964;5.924;2022-11-20T05:18:48;35.38;;;19.48;;
33076;SDS011;38790;51.964;5.924;2022-11-20T05:21:15;33.22;;;19.55;;
33076;SDS011;38790;51.964;5.924;2022-11-20T05:23:42;37.10;;;20.25;;
33076;SDS011;38790;51.964;5.924;2022-11-20T05:26:16;32.83;;;20.52;;
33076;SDS011;38790;51.964;5.924;2022-11-20T05:28:44;31.27;;;18.65;;
33076;SDS011;38790;51.964;5.924;2022-11-20T05:31:13;29.48;;;18.25;;
33076;SDS011;38790;51.964;5.924;2022-11-20T05:33:41;32.65;;;18.70;;
33076;SDS011;38790;51.964;5.924;2022-11-20T05:36:09;35.35;;;19.92;;
33076;SDS011;38790;51.964;5.924;2022-11-20T05:38:36;33.03;;;19.67;;
33076;SDS011;38790;51.964;5.924;2022-11-20T05:41:06;37.90;;;21.80;;
33076;SDS011;38790;51.964;5.924;2022-11-20T05:43:38;33.13;;;20.77;;
33076;SDS011;38790;51.964;5.924;2022-11-20T05:46:06;34.33;;;19.60;;
33076;SDS011;38790;51.964;5.924;2022-11-20T05:48:34;30.35;;;20.27;;
33076;SDS011;38790;51.964;5.924;2022-11-20T05:51:02;35.38;;;20.45;;
33076;SDS011;38790;51.964;5.924;2022-11-20T05:53:29;32.30;;;20.40;;
33076;SDS011;38790;51.964;5.924;2022-11-20T05:56:01;35.55;;;21.33;;
33076;SDS011;38790;51.964;5.924;2022-11-20T05:58:27;32.25;;;20.15;;
33076;SDS011;38790;51.964;5.924;2022-11-20T06:00:54;39.40;;;20.75;;
33076;SDS011;38790;51.964;5.924;2022-11-20T06:03:20;36.50;;;22.40;;
33076;SDS011;38790;51.964;5.924;2022-11-20T06:05:46;33.53;;;20.70;;
33076;SDS011;38790;51.964;5.924;2022-11-20T06:08:12;36.53;;;19.55;;
33076;SDS011;38790;51.964;5.924;2022-11-20T06:10:38;31.17;;;19.45;;
33076;SDS011;38790;51.964;5.924;2022-11-20T06:13:04;34.97;;;20.20;;
33076;SDS011;38790;51.964;5.924;2022-11-20T06:15:31;36.55;;;22.00;;
33076;SDS011;38790;51.964;5.924;2022-11-20T06:17:57;31.65;;;20.05;;
33076;SDS011;38790;51.964;5.924;2022-11-20T06:20:24;33.90;;;20.63;;
33076;SDS011;38790;51.964;5.924;2022-11-20T06:22:50;34.47;;;21.50;;
33076;SDS011;38790;51.964;5.924;2022-11-20T06:25:16;37.75;;;20.58;;
33076;SDS011;38790;51.964;5.924;2022-11-20T06:27:42;35.15;;;20.95;;
33076;SDS011;38790;51.964;5.924;2022-11-20T06:30:08;33.78;;;20.42;;
33076;SDS011;38790;51.964;5.924;2022-11-20T06:32:35;30.33;;;18.75;;
33076;SDS011;38790;51.964;5.924;2022-11-20T06:35:01;34.47;;;20.27;;
33076;SDS011;38790;51.964;5.924;2022-11-20T06:37:27;32.78;;;19.42;;
33076;SDS011;38790;51.964;5.924;2022-11-20T06:39:53;33.40;;;18.52;;
33076;SDS011;38790;51.964;5.924;2022-11-20T06:42:19;31.25;;;19.63;;
33076;SDS011;38790;51.964;5.924;2022-11-20T06:44:45;37.28;;;21.33;;
33076;SDS011;38790;51.964;5.924;2022-11-20T06:47:12;34.05;;;18.75;;
33076;SDS011;38790;51.964;5.924;2022-11-20T06:49:38;34.22;;;19.75;;
33076;SDS011;38790;51.964;5.924;2022-11-20T06:52:04;33.63;;;20.38;;
33076;SDS011;38790;51.964;5.924;2022-11-20T06:54:30;37.88;;;21.58;;
33076;SDS011;38790;51.964;5.924;2022-11-20T06:56:56;35.47;;;20.00;;
33076;SDS011;38790;51.964;5.924;2022-11-20T06:59:22;31.33;;;20.40;;
33076;SDS011;38790;51.964;5.924;2022-11-20T07:01:48;34.95;;;22.00;;
33076;SDS011;38790;51.964;5.924;2022-11-20T07:04:14;30.67;;;19.08;;
33076;SDS011;38790;51.964;5.924;2022-11-20T07:06:41;37.10;;;22.33;;
33076;SDS011;38790;51.964;5.924;2022-11-20T07:09:07;34.80;;;20.98;;
33076;SDS011;38790;51.964;5.924;2022-11-20T07:11:33;41.35;;;22.20;;
33076;SDS011;38790;51.964;5.924;2022-11-20T07:13:59;35.08;;;21.77;;
33076;SDS011;38790;51.964;5.924;2022-11-20T07:16:25;38.33;;;21.08;;
33076;SDS011;38790;51.964;5.924;2022-11-20T07:18:51;31.35;;;19.55;;
33076;SDS011;38790;51.964;5.924;2022-11-20T07:21:17;35.78;;;21.83;;
33076;SDS011;38790;51.964;5.924;2022-11-20T07:23:43;38.28;;;21.15;;
33076;SDS011;38790;51.964;5.924;2022-11-20T07:26:10;43.33;;;21.70;;
33076;SDS011;38790;51.964;5.924;2022-11-20T07:28:37;40.03;;;23.33;;
33076;SDS011;38790;51.964;5.924;2022-11-20T07:31:03;41.67;;;23.30;;
33076;SDS011;38790;51.964;5.924;2022-11-20T07:33:32;39.05;;;21.73;;
33076;SDS011;38790;51.964;5.924;2022-11-20T07:35:58;45.97;;;23.52;;
33076;SDS011;38790;51.964;5.924;2022-11-20T07:38:25;36.35;;;21.63;;
33076;SDS011;38790;51.964;5.924;2022-11-20T07:40:55;40.13;;;23.27;;
33076;SDS011;38790;51.964;5.924;2022-11-20T07:43:23;42.22;;;25.33;;
33076;SDS011;38790;51.964;5.924;2022-11-20T07:45:50;37.28;;;22.85;;
33076;SDS011;38790;51.964;5.924;2022-11-20T07:48:16;47.17;;;24.88;;
33076;SDS011;38790;51.964;5.924;2022-11-20T07:50:42;43.05;;;23.63;;
33076;SDS011;38790;51.964;5.924;2022-11-20T07:53:09;49.90;;;25.95;;
33076;SDS011;38790;51.964;5.924;2022-11-20T07:55:35;44.97;;;25.33;;
33076;SDS011;38790;51.964;5.924;2022-11-20T07:58:01;40.78;;;24.80;;
33076;SDS011;38790;51.964;5.924;2022-11-20T08:00:27;51.80;;;26.85;;
33076;SDS011;38790;51.964;5.924;2022-11-20T08:02:53;42.65;;;24.90;;
33076;SDS011;38790;51.964;5.924;2022-11-20T08:05:20;41.83;;;25.98;;
33076;SDS011;38790;51.964;5.924;2022-11-20T08:07:46;46.42;;;27.40;;
33076;SDS011;38790;51.964;5.924;2022-11-20T08:10:13;46.75;;;28.00;;
33076;SDS011;38790;51.964;5.924;2022-11-20T08:12:48;44.63;;;26.58;;
33076;SDS011;38790;51.964;5.924;2022-11-20T08:15:34;53.58;;;27.48;;
33076;SDS011;38790;51.964;5.924;2022-11-20T08:18:02;46.58;;;28.17;;
33076;SDS011;38790;51.964;5.924;2022-11-20T08:20:30;50.30;;;26.65;;
33076;SDS011;38790;51.964;5.924;2022-11-20T08:23:00;43.95;;;27.67;;
33076;SDS011;38790;51.964;5.924;2022-11-20T08:25:27;48.83;;;28.48;;
33076;SDS011;38790;51.964;5.924;2022-11-20T08:27:58;44.63;;;27.88;;
33076;SDS011;38790;51.964;5.924;2022-11-20T08:30:25;48.72;;;29.20;;
33076;SDS011;38790;51.964;5.924;2022-11-20T08:32:51;49.30;;;28.02;;
33076;SDS011;38790;51.964;5.924;2022-11-20T08:35:18;48.88;;;27.42;;
33076;SDS011;38790;51.964;5.924;2022-11-20T08:37:47;49.35;;;28.00;;
33076;SDS011;38790;51.964;5.924;2022-11-20T08:40:14;49.92;;;29.55;;
33076;SDS011;38790;51.964;5.924;2022-11-20T08:42:49;50.30;;;29.13;;
33076;SDS011;38790;51.964;5.924;2022-11-20T08:45:16;45.22;;;27.92;;
33076;SDS011;38790;51.964;5.924;2022-11-20T08:47:44;45.92;;;28.15;;
33076;SDS011;38790;51.964;5.924;2022-11-20T08:50:12;46.72;;;28.05;;
33076;SDS011;38790;51.964;5.924;2022-11-20T08:52:39;50.53;;;28.25;;
33076;SDS011;38790;51.964;5.924;2022-11-20T08:55:06;55.05;;;32.63;;
33076;SDS011;38790;51.964;5.924;2022-11-20T08:57:33;60.95;;;30.45;;
33076;SDS011;38790;51.964;5.924;2022-11-20T09:00:00;50.05;;;30.10;;
33076;SDS011;38790;51.964;5.924;2022-11-20T09:02:27;54.17;;;29.25;;
33076;SDS011;38790;51.964;5.924;2022-11-20T09:04:53;46.00;;;28.88;;
33076;SDS011;38790;51.964;5.924;2022-11-20T09:07:19;51.05;;;29.50;;
33076;SDS011;38790;51.964;5.924;2022-11-20T09:09:45;54.88;;;30.38;;
33076;SDS011;38790;51.964;5.924;2022-11-20T09:12:12;51.97;;;29.40;;
33076;SDS011;38790;51.964;5.924;2022-11-20T09:14:38;48.58;;;31.25;;
33076;SDS011;38790;51.964;5.924;2022-11-20T09:17:04;54.83;;;30.80;;
33076;SDS011;38790;51.964;5.924;2022-11-20T09:19:30;50.95;;;30.17;;
33076;SDS011;38790;51.964;5.924;2022-11-20T09:21:56;49.15;;;29.52;;
33076;SDS011;38790;51.964;5.924;2022-11-20T09:24:22;51.47;;;30.27;;
33076;SDS011;38790;51.964;5.924;2022-11-20T09:26:48;48.03;;;29.70;;
33076;SDS011;38790;51.964;5.924;2022-11-20T09:29:14;55.60;;;31.20;;
33076;SDS011;38790;51.964;5.924;2022-11-20T09:31:41;49.15;;;30.35;;
33076;SDS011;38790;51.964;5.924;2022-11-20T09:34:07;50.80;;;31.17;;
33076;SDS011;38790;51.964;5.924;2022-11-20T09:36:33;51.25;;;30.73;;
33076;SDS011;38790;51.964;5.924;2022-11-20T09:38:59;48.65;;;29.75;;
33076;SDS011;38790;51.964;5.924;2022-11-20T09:41:36;44.80;;;28.67;;
33076;SDS011;38790;51.964;5.924;2022-11-20T09:44:57;47.88;;;29.75;;
33076;SDS011;38790;51.964;5.924;2022-11-20T09:53:37;48.88;;;30.40;;
33076;SDS011;38790;51.964;5.924;2022-11-20T09:56:08;48.03;;;30.52;;
33076;SDS011;38790;51.964;5.924;2022-11-20T09:58:47;46.88;;;29.45;;
33076;SDS011;38790;51.964;5.924;2022-11-20T10:01:17;50.70;;;33.05;;
33076;SDS011;38790;51.964;5.924;2022-11-20T10:06:18;56.50;;;30.52;;
33076;SDS011;38790;51.964;5.924;2022-11-20T10:08:54;52.35;;;33.08;;
33076;SDS011;38790;51.964;5.924;2022-11-20T10:17:31;55.20;;;32.50;;
33076;SDS011;38790;51.964;5.924;2022-11-20T10:25:19;52.38;;;32.97;;
33076;SDS011;38790;51.964;5.924;2022-11-20T10:27:54;57.45;;;33.13;;
33076;SDS011;38790;51.964;5.924;2022-11-20T10:30:41;57.70;;;32.83;;
33076;SDS011;38790;51.964;5.924;2022-11-20T10:33:17;53.42;;;33.50;;
33076;SDS011;38790;51.964;5.924;2022-11-20T10:35:55;51.72;;;31.80;;
33076;SDS011;38790;51.964;5.924;2022-11-20T10:38:31;62.83;;;32.50;;
33076;SDS011;38790;51.964;5.924;2022-11-20T10:41:03;61.75;;;32.63;;
33076;SDS011;38790;51.964;5.924;2022-11-20T10:43:52;50.58;;;32.20;;
33076;SDS011;38790;51.964;5.924;2022-11-20T10:46:40;63.63;;;35.75;;
33076;SDS011;38790;51.964;5.924;2022-11-20T10:49:19;61.47;;;34.08;;
33076;SDS011;38790;51.964;5.924;2022-11-20T10:54:22;53.72;;;32.25;;
33076;SDS011;38790;51.964;5.924;2022-11-20T10:57:08;52.20;;;32.83;;
33076;SDS011;38790;51.964;5.924;2022-11-20T10:59:48;50.22;;;31.10;;
33076;SDS011;38790;51.964;5.924;2022-11-20T11:02:33;50.95;;;33.17;;
33076;SDS011;38790;51.964;5.924;2022-11-20T11:05:14;60.92;;;32.70;;
33076;SDS011;38790;51.964;5.924;2022-11-20T11:07:46;55.08;;;32.90;;
33076;SDS011;38790;51.964;5.924;2022-11-20T11:10:22;56.45;;;33.25;;
33076;SDS011;38790;51.964;5.924;2022-11-20T11:13:05;55.78;;;33.05;;
33076;SDS011;38790;51.964;5.924;2022-11-20T11:15:38;50.58;;;31.80;;
33076;SDS011;38790;51.964;5.924;2022-11-20T11:18:10;51.50;;;32.30;;
33076;SDS011;38790;51.964;5.924;2022-11-20T11:20:37;53.30;;;32.28;;
33076;SDS011;38790;51.964;5.924;2022-11-20T11:23:03;55.05;;;34.20;;
33076;SDS011;38790;51.964;5.924;2022-11-20T11:28:04;50.03;;;32.45;;
33076;SDS011;38790;51.964;5.924;2022-11-20T11:30:43;50.72;;;32.08;;
33076;SDS011;38790;51.964;5.924;2022-11-20T11:33:11;49.83;;;30.42;;
33076;SDS011;38790;51.964;5.924;2022-11-20T11:35:45;55.00;;;31.75;;
33076;SDS011;38790;51.964;5.924;2022-11-20T11:38:21;52.92;;;31.70;;
33076;SDS011;38790;51.964;5.924;2022-11-20T11:40:54;55.10;;;32.55;;
33076;SDS011;38790;51.964;5.924;2022-11-20T11:43:25;54.20;;;34.78;;
33076;SDS011;38790;51.964;5.924;2022-11-20T11:48:57;43.25;;;29.58;;
33076;SDS011;38790;51.964;5.924;2022-11-20T11:51:26;52.45;;;33.08;;
33076;SDS011;38790;51.964;5.924;2022-11-20T11:53:58;54.45;;;33.28;;
33076;SDS011;38790;51.964;5.924;2022-11-20T11:56:25;46.78;;;31.27;;
33076;SDS011;38790;51.964;5.924;2022-11-20T11:58:52;52.72;;;32.42;;
33076;SDS011;38790;51.964;5.924;2022-11-20T12:07:03;58.83;;;34.30;;
33076;SDS011;38790;51.964;5.924;2022-11-20T12:09:42;54.83;;;33.75;;
33076;SDS011;38790;51.964;5.924;2022-11-20T12:12:15;51.05;;;33.45;;
33076;SDS011;38790;51.964;5.924;2022-11-20T12:14:48;59.67;;;36.83;;
33076;SDS011;38790;51.964;5.924;2022-11-20T12:17:18;55.08;;;36.10;;
33076;SDS011;38790;51.964;5.924;2022-11-20T12:19:44;53.70;;;36.88;;
33076;SDS011;38790;51.964;5.924;2022-11-20T12:25:09;53.75;;;35.22;;
33076;SDS011;38790;51.964;5.924;2022-11-20T12:27:51;55.85;;;33.67;;
33076;SDS011;38790;51.964;5.924;2022-11-20T12:33:51;52.85;;;32.85;;
33076;SDS011;38790;51.964;5.924;2022-11-20T12:45:01;47.22;;;31.45;;
33076;SDS011;38790;51.964;5.924;2022-11-20T12:47:52;52.58;;;32.65;;
33076;SDS011;38790;51.964;5.924;2022-11-20T12:53:42;49.38;;;31.77;;
33076;SDS011;38790;51.964;5.924;2022-11-20T12:59:00;50.33;;;32.20;;
33076;SDS011;38790;51.964;5.924;2022-11-20T13:07:34;53.20;;;32.25;;
33076;SDS011;38790;51.964;5.924;2022-11-20T13:10:05;52.72;;;34.50;;
33076;SDS011;38790;51.964;5.924;2022-11-20T13:16:00;52.08;;;33.50;;
33076;SDS011;38790;51.964;5.924;2022-11-20T13:18:39;53.30;;;31.50;;
33076;SDS011;38790;51.964;5.924;2022-11-20T13:21:19;54.03;;;34.05;;
33076;SDS011;38790;51.964;5.924;2022-11-20T13:23:47;53.85;;;32.00;;
33076;SDS011;38790;51.964;5.924;2022-11-20T13:26:19;55.63;;;34.42;;
33076;SDS011;38790;51.964;5.924;2022-11-20T13:28:48;47.63;;;32.30;;
33076;SDS011;38790;51.964;5.924;2022-11-20T13:31:44;53.85;;;32.65;;
33076;SDS011;38790;51.964;5.924;2022-11-20T13:34:13;56.92;;;36.33;;
33076;SDS011;38790;51.964;5.924;2022-11-20T13:36:52;61.03;;;36.97;;
33076;SDS011;38790;51.964;5.924;2022-11-20T13:39:32;64.00;;;38.38;;
33076;SDS011;38790;51.964;5.924;2022-11-20T13:42:01;58.08;;;37.03;;
33076;SDS011;38790;51.964;5.924;2022-11-20T13:44:53;63.03;;;36.35;;
33076;SDS011;38790;51.964;5.924;2022-11-20T13:49:53;64.82;;;36.78;;
33076;SDS011;38790;51.964;5.924;2022-11-20T14:01:08;65.68;;;40.03;;
33076;SDS011;38790;51.964;5.924;2022-11-20T14:03:40;69.32;;;39.25;;
33076;SDS011;38790;51.964;5.924;2022-11-20T14:06:20;65.25;;;40.15;;
33076;SDS011;38790;51.964;5.924;2022-11-20T14:08:49;68.47;;;42.63;;
33076;SDS011;38790;51.964;5.924;2022-11-20T14:11:17;65.95;;;40.95;;
33076;SDS011;38790;51.964;5.924;2022-11-20T14:14:04;72.03;;;42.42;;
33076;SDS011;38790;51.964;5.924;2022-11-20T14:16:44;71.10;;;40.92;;
33076;SDS011;38790;51.964;5.924;2022-11-20T14:19:19;79.28;;;40.20;;
33076;SDS011;38790;51.964;5.924;2022-11-20T14:22:10;69.13;;;39.35;;
33076;SDS011;38790;51.964;5.924;2022-11-20T14:24:44;67.60;;;39.10;;
33076;SDS011;38790;51.964;5.924;2022-11-20T14:27:16;68.70;;;38.67;;
33076;SDS011;38790;51.964;5.924;2022-11-20T14:29:46;67.72;;;39.42;;
33076;SDS011;38790;51.964;5.924;2022-11-20T14:32:15;74.50;;;41.17;;
33076;SDS011;38790;51.964;5.924;2022-11-20T14:34:48;71.82;;;38.58;;
33076;SDS011;38790;51.964;5.924;2022-11-20T14:37:20;75.78;;;43.58;;
33076;SDS011;38790;51.964;5.924;2022-11-20T14:39:53;56.28;;;32.33;;
33076;SDS011;38790;51.964;5.924;2022-11-20T14:42:22;66.95;;;40.75;;
33076;SDS011;38790;51.964;5.924;2022-11-20T14:44:50;77.07;;;44.72;;
33076;SDS011;38790;51.964;5.924;2022-11-20T14:47:27;91.88;;;43.60;;
33076;SDS011;38790;51.964;5.924;2022-11-20T14:49:56;79.85;;;44.72;;
33076;SDS011;38790;51.964;5.924;2022-11-20T14:52:25;71.47;;;43.67;;
33076;SDS011;38790;51.964;5.924;2022-11-20T14:54:53;80.95;;;43.50;;
33076;SDS011;38790;51.964;5.924;2022-11-20T14:57:31;70.97;;;42.05;;
33076;SDS011;38790;51.964;5.924;2022-11-20T15:00:06;82.63;;;44.35;;
33076;SDS011;38790;51.964;5.924;2022-11-20T15:02:46;70.03;;;42.95;;
33076;SDS011;38790;51.964;5.924;2022-11-20T15:05:14;82.63;;;45.90;;
33076;SDS011;38790;51.964;5.924;2022-11-20T15:07:42;82.00;;;45.40;;
33076;SDS011;38790;51.964;5.924;2022-11-20T15:12:54;73.55;;;43.67;;
33076;SDS011;38790;51.964;5.924;2022-11-20T15:15:25;78.57;;;42.55;;
33076;SDS011;38790;51.964;5.924;2022-11-20T15:17:51;81.15;;;46.10;;
33076;SDS011;38790;51.964;5.924;2022-11-20T15:20:17;93.35;;;45.15;;
33076;SDS011;38790;51.964;5.924;2022-11-20T15:22:44;81.63;;;44.47;;
33076;SDS011;38790;51.964;5.924;2022-11-20T15:25:14;82.07;;;45.10;;
33076;SDS011;38790;51.964;5.924;2022-11-20T15:27:42;85.00;;;43.95;;
33076;SDS011;38790;51.964;5.924;2022-11-20T15:30:19;79.22;;;44.78;;
33076;SDS011;38790;51.964;5.924;2022-11-20T15:32:46;83.60;;;43.03;;
33076;SDS011;38790;51.964;5.924;2022-11-20T15:35:13;82.63;;;42.90;;
33076;SDS011;38790;51.964;5.924;2022-11-20T15:37:40;86.07;;;44.53;;
33076;SDS011;38790;51.964;5.924;2022-11-20T15:40:07;85.47;;;45.63;;
33076;SDS011;38790;51.964;5.924;2022-11-20T15:42:37;83.22;;;44.38;;
33076;SDS011;38790;51.964;5.924;2022-11-20T15:45:03;80.72;;;45.67;;
33076;SDS011;38790;51.964;5.924;2022-11-20T15:47:30;88.60;;;46.28;;
33076;SDS011;38790;51.964;5.924;2022-11-20T15:49:58;91.85;;;47.08;;
33076;SDS011;38790;51.964;5.924;2022-11-20T15:52:25;91.32;;;47.53;;
33076;SDS011;38790;51.964;5.924;2022-11-20T15:54:51;95.82;;;46.65;;
33076;SDS011;38790;51.964;5.924;2022-11-20T15:57:18;85.85;;;46.42;;